Time;durP1;ratioP1;P1;durP2;ratioP2;P2;SDS_P1;SDS_P2;PMS_P1;PMS_P2;Temp;Humidity;BMP_temperature;BMP_pressure;BME280_temperature;BME280_humidity;BME280_pressure;Samples;Min_cycle;Max_cycle;Signal;HPM_P1;HPM_P2
2023/12/07 00:01:53;;;;;;;2.20;2.10;;;5.70;99.90;;;;;;5012541;28;20073;-89
2023/12/07 00:04:19;;;;;;;2.20;2.10;;;5.90;99.90;;;;;;5027303;28;20684;-92
2023/12/07 00:06:45;;;;;;;2.20;2.10;;;5.80;99.90;;;;;;5010863;28;20041;-91
2023/12/07 00:09:10;;;;;;;2.22;2.13;;;5.70;99.90;;;;;;4986024;28;1226317;-93
2023/12/07 00:11:36;;;;;;;2.10;2.00;;;5.70;99.90;;;;;;5011808;28;20052;-91
2023/12/07 00:14:02;;;;;;;2.20;2.10;;;5.60;99.90;;;;;;5015587;28;20127;-92
2023/12/07 00:16:28;;;;;;;2.00;1.90;;;5.50;99.90;;;;;;5018541;28;20136;-91
2023/12/07 00:18:53;;;;;;;2.10;2.00;;;5.30;99.90;;;;;;5002730;28;20049;-92
2023/12/07 00:21:19;;;;;;;2.10;2.00;;;5.40;99.90;;;;;;5012679;28;20037;-90
2023/12/07 00:23:45;;;;;;;2.10;2.00;;;5.20;99.90;;;;;;5035229;28;20044;-91
2023/12/07 00:26:11;;;;;;;2.17;2.08;;;5.00;99.90;;;;;;5019997;28;20056;-91
2023/12/07 00:28:37;;;;;;;2.20;2.10;;;5.20;99.90;;;;;;5016211;28;20052;-90
2023/12/07 00:31:03;;;;;;;2.03;1.92;;;5.10;99.90;;;;;;5004851;28;20038;-91
2023/12/07 00:33:28;;;;;;;2.20;2.10;;;5.10;99.90;;;;;;5000916;28;20041;-91
2023/12/07 00:35:54;;;;;;;2.13;2.03;;;5.10;99.90;;;;;;4998971;28;20042;-92
2023/12/07 00:38:20;;;;;;;2.30;2.20;;;5.10;99.90;;;;;;4999214;28;20059;-92
2023/12/07 00:40:47;;;;;;;2.50;2.40;;;5.00;99.90;;;;;;5015444;28;20449;-90
2023/12/07 00:43:12;;;;;;;2.10;2.00;;;4.90;99.90;;;;;;5016595;28;20114;-90
2023/12/07 00:45:38;;;;;;;2.17;2.08;;;4.80;99.90;;;;;;5016666;28;20033;-91
2023/12/07 00:48:05;;;;;;;2.38;2.28;;;4.80;99.90;;;;;;5016248;28;20045;-91
2023/12/07 00:50:30;;;;;;;2.20;2.10;;;4.80;99.90;;;;;;5001845;28;20060;-91
2023/12/07 00:52:56;;;;;;;2.20;2.10;;;5.00;99.90;;;;;;5004883;28;20041;-92
2023/12/07 00:55:22;;;;;;;2.10;2.00;;;4.90;99.90;;;;;;5001104;28;20132;-91
2023/12/07 00:57:48;;;;;;;2.20;2.10;;;4.80;99.90;;;;;;5016319;28;20125;-91
2023/12/07 01:00:14;;;;;;;2.22;2.13;;;4.80;99.90;;;;;;4997521;28;20045;-91
2023/12/07 01:02:40;;;;;;;2.20;2.10;;;4.90;99.90;;;;;;5001076;28;20479;-91
2023/12/07 01:05:06;;;;;;;2.40;2.30;;;4.70;99.90;;;;;;5016003;28;20056;-92
2023/12/07 01:07:32;;;;;;;2.10;2.00;;;4.80;99.90;;;;;;4998817;28;20053;-91
2023/12/07 01:09:57;;;;;;;2.20;2.10;;;4.80;99.90;;;;;;5018638;28;20052;-91
2023/12/07 01:12:23;;;;;;;2.40;2.30;;;4.90;99.90;;;;;;5015798;28;20052;-91
2023/12/07 01:14:49;;;;;;;2.20;2.10;;;4.80;99.90;;;;;;5018097;28;20488;-91
2023/12/07 01:17:15;;;;;;;2.20;2.10;;;4.70;99.90;;;;;;5009262;28;20160;-91
2023/12/07 01:19:40;;;;;;;2.10;2.00;;;4.80;99.90;;;;;;4994489;28;20041;-91
2023/12/07 01:22:06;;;;;;;2.20;2.10;;;4.90;99.90;;;;;;5011456;28;20049;-91
2023/12/07 01:24:32;;;;;;;2.25;2.15;;;4.80;99.90;;;;;;4994238;28;20045;-91
2023/12/07 01:26:58;;;;;;;2.20;2.10;;;4.80;99.90;;;;;;5013431;28;20103;-90
2023/12/07 01:29:24;;;;;;;2.40;2.30;;;4.90;99.90;;;;;;5013320;28;20046;-91
2023/12/07 01:31:49;;;;;;;2.20;2.10;;;4.70;99.90;;;;;;4997020;28;20048;-91
2023/12/07 01:34:17;;;;;;;2.20;2.10;;;4.90;99.90;;;;;;5016227;28;20045;-91
2023/12/07 01:36:44;;;;;;;2.10;2.00;;;5.00;99.90;;;;;;5014769;28;20049;-91
2023/12/07 01:39:12;;;;;;;2.30;2.20;;;4.80;99.90;;;;;;5018465;28;20494;-91
2023/12/07 01:41:40;;;;;;;2.20;2.10;;;4.70;99.90;;;;;;5003624;28;20550;-91
2023/12/07 01:44:06;;;;;;;2.20;2.10;;;4.70;99.90;;;;;;5000691;28;20556;-91
2023/12/07 01:46:33;;;;;;;2.20;2.10;;;4.70;99.90;;;;;;5012370;28;20053;-91
2023/12/07 01:48:59;;;;;;;2.20;2.10;;;4.80;99.90;;;;;;5016526;28;20049;-91
2023/12/07 01:51:26;;;;;;;2.40;2.30;;;4.80;99.90;;;;;;5018722;28;20080;-91
2023/12/07 01:53:52;;;;;;;2.22;2.13;;;5.00;99.90;;;;;;5018345;28;20183;-92
2023/12/07 01:56:18;;;;;;;2.33;2.22;;;5.10;99.90;;;;;;4997498;28;20079;-92
2023/12/07 01:58:47;;;;;;;2.20;2.10;;;4.90;99.90;;;;;;5007609;28;20054;-92
2023/12/07 02:01:13;;;;;;;2.20;2.10;;;4.70;99.90;;;;;;5013939;28;20137;-91
2023/12/07 02:03:40;;;;;;;2.25;2.15;;;5.00;99.90;;;;;;5004210;28;20116;-91
2023/12/07 02:06:21;;;;;;;2.22;2.13;;;5.00;99.90;;;;;;5031729;28;20117;-91
2023/12/07 02:08:47;;;;;;;2.10;2.00;;;4.90;99.90;;;;;;4992600;28;20376;-91
2023/12/07 02:11:12;;;;;;;2.20;2.10;;;4.90;99.90;;;;;;5012473;28;20059;-91
2023/12/07 02:13:40;;;;;;;2.10;2.00;;;5.10;99.90;;;;;;5001135;28;20037;-91
2023/12/07 02:16:15;;;;;;;2.10;2.00;;;4.90;99.90;;;;;;5000879;28;20073;-91
2023/12/07 02:18:56;;;;;;;2.05;1.95;;;4.90;99.90;;;;;;5009855;28;20046;-91
2023/12/07 02:21:34;;;;;;;2.10;2.00;;;4.90;99.90;;;;;;4993079;28;20042;-91
2023/12/07 02:24:01;;;;;;;2.20;2.10;;;5.10;99.90;;;;;;5014634;28;20041;-92
2023/12/07 02:26:37;;;;;;;2.00;1.90;;;5.10;99.90;;;;;;5004887;28;20039;-91
2023/12/07 02:29:03;;;;;;;2.17;2.08;;;5.00;99.90;;;;;;5019241;28;20041;-91
2023/12/07 02:31:29;;;;;;;2.10;2.00;;;4.90;99.90;;;;;;5001965;28;20037;-92
2023/12/07 02:33:58;;;;;;;2.20;2.10;;;5.20;99.90;;;;;;5034949;28;20091;-91
2023/12/07 02:36:26;;;;;;;2.10;2.00;;;5.00;99.90;;;;;;5000629;28;20068;-91
2023/12/07 02:38:56;;;;;;;2.20;2.10;;;5.20;99.90;;;;;;5018784;28;20119;-91
2023/12/07 02:41:23;;;;;;;2.10;2.00;;;5.00;99.90;;;;;;5036098;28;20652;-89
2023/12/07 02:43:49;;;;;;;2.10;2.00;;;5.00;99.90;;;;;;4999968;28;20080;-92
2023/12/07 02:46:15;;;;;;;2.10;2.00;;;5.10;99.90;;;;;;5020742;28;20033;-92
2023/12/07 02:48:41;;;;;;;2.00;1.90;;;4.80;99.90;;;;;;5019074;28;20115;-90
2023/12/07 02:51:07;;;;;;;2.10;2.00;;;4.90;99.90;;;;;;5005388;28;20050;-92
2023/12/07 02:53:32;;;;;;;2.17;2.08;;;5.00;99.90;;;;;;5018546;28;20115;-91
2023/12/07 02:55:58;;;;;;;2.20;2.10;;;5.10;99.90;;;;;;5019155;28;20502;-92
2023/12/07 02:58:24;;;;;;;2.10;2.00;;;5.10;99.90;;;;;;5014737;28;20119;-92
2023/12/07 03:00:50;;;;;;;2.20;2.10;;;5.00;99.90;;;;;;5014399;28;20062;-91
2023/12/07 03:03:15;;;;;;;2.13;2.03;;;4.90;99.90;;;;;;4994455;28;20057;-91
2023/12/07 03:05:41;;;;;;;2.17;2.08;;;5.10;99.90;;;;;;5018989;28;20045;-92
2023/12/07 03:08:07;;;;;;;2.00;1.90;;;4.70;99.90;;;;;;4990961;28;20060;-91
2023/12/07 03:10:32;;;;;;;2.00;1.90;;;4.90;99.90;;;;;;5018633;28;20084;-92
2023/12/07 03:12:58;;;;;;;2.20;2.10;;;4.70;99.90;;;;;;5017531;28;20119;-91
2023/12/07 03:15:24;;;;;;;2.00;1.90;;;4.50;99.90;;;;;;5016041;28;20683;-91
2023/12/07 03:17:50;;;;;;;2.20;2.10;;;4.60;99.90;;;;;;4995959;28;20128;-92
2023/12/07 03:20:16;;;;;;;2.30;2.20;;;4.60;99.90;;;;;;5021755;28;20049;-91
2023/12/07 03:22:42;;;;;;;2.35;2.25;;;4.60;99.90;;;;;;5002451;28;20041;-90
2023/12/07 03:25:08;;;;;;;2.20;2.10;;;4.50;99.90;;;;;;5004245;28;20042;-91
2023/12/07 03:27:34;;;;;;;2.22;2.13;;;4.50;99.90;;;;;;5019284;28;20042;-91
2023/12/07 03:30:00;;;;;;;2.30;2.20;;;4.50;99.90;;;;;;5001113;28;20053;-92
2023/12/07 03:32:25;;;;;;;2.20;2.10;;;4.10;99.90;;;;;;5001229;28;20053;-91
2023/12/07 03:34:51;;;;;;;2.30;2.20;;;4.10;99.90;;;;;;5013480;28;20053;-91
2023/12/07 03:37:17;;;;;;;2.20;2.10;;;4.40;99.90;;;;;;4983837;28;20056;-91
2023/12/07 03:39:43;;;;;;;2.20;2.10;;;4.20;99.90;;;;;;5015067;28;20055;-92
2023/12/07 03:42:11;;;;;;;2.20;2.10;;;4.30;99.90;;;;;;5004422;28;20114;-92
2023/12/07 03:44:37;;;;;;;2.10;2.00;;;4.10;99.90;;;;;;5018534;28;20052;-91
2023/12/07 03:47:03;;;;;;;2.30;2.20;;;4.20;99.90;;;;;;5002105;28;20049;-92
2023/12/07 03:49:29;;;;;;;2.20;2.10;;;4.20;99.90;;;;;;5019351;28;20049;-92
2023/12/07 03:51:55;;;;;;;2.28;2.17;;;4.20;99.90;;;;;;5000124;28;20049;-93
2023/12/07 03:54:20;;;;;;;2.20;2.10;;;3.80;99.90;;;;;;5018753;28;20183;-93
2023/12/07 03:56:46;;;;;;;2.28;2.17;;;4.10;99.90;;;;;;4998509;28;20053;-92
2023/12/07 03:59:15;;;;;;;2.20;2.10;;;3.80;99.90;;;;;;5020203;28;20049;-92
2023/12/07 04:01:41;;;;;;;2.15;2.05;;;3.90;99.90;;;;;;5023594;28;20052;-91
2023/12/07 04:04:07;;;;;;;2.20;2.10;;;3.80;99.90;;;;;;5019425;28;20048;-92
2023/12/07 04:06:33;;;;;;;2.20;2.10;;;3.70;99.90;;;;;;5021750;28;20958;-90
2023/12/07 04:08:59;;;;;;;2.40;2.30;;;3.90;99.90;;;;;;5005598;28;20105;-92
2023/12/07 04:11:25;;;;;;;2.13;2.03;;;3.90;99.90;;;;;;5038449;28;20025;-92
2023/12/07 04:13:51;;;;;;;2.20;2.10;;;3.60;99.90;;;;;;5018694;28;20041;-92
2023/12/07 04:16:16;;;;;;;2.00;1.90;;;3.80;99.90;;;;;;5017976;28;20140;-92
2023/12/07 04:18:42;;;;;;;2.10;2.00;;;3.80;99.90;;;;;;5025548;28;20028;-92
2023/12/07 04:21:08;;;;;;;2.15;2.05;;;3.50;99.90;;;;;;5020751;28;20071;-92
2023/12/07 04:23:33;;;;;;;2.15;2.05;;;3.50;99.90;;;;;;5019098;28;20266;-91
2023/12/07 04:25:59;;;;;;;2.20;2.10;;;3.70;99.90;;;;;;5038827;28;20049;-92
2023/12/07 04:28:25;;;;;;;2.10;2.00;;;3.50;99.90;;;;;;5019804;28;20109;-92
2023/12/07 04:30:51;;;;;;;2.20;2.10;;;3.70;99.90;;;;;;5007851;28;20056;-91
2023/12/07 04:33:16;;;;;;;2.10;2.00;;;3.80;99.90;;;;;;5018345;28;20033;-91
2023/12/07 04:35:42;;;;;;;2.10;2.00;;;3.60;99.90;;;;;;5027012;28;20041;-92
2023/12/07 04:38:08;;;;;;;2.10;2.00;;;3.60;99.90;;;;;;5012503;28;20113;-91
2023/12/07 04:40:33;;;;;;;2.20;2.10;;;3.90;99.90;;;;;;5014213;28;20048;-90
2023/12/07 04:42:59;;;;;;;2.10;2.00;;;4.10;99.90;;;;;;5006411;28;20040;-91
2023/12/07 04:45:25;;;;;;;2.20;2.10;;;4.00;99.90;;;;;;4979663;28;20044;-91
2023/12/07 04:47:51;;;;;;;2.20;2.10;;;4.20;99.90;;;;;;5008773;28;20042;-92
2023/12/07 04:50:16;;;;;;;2.20;2.10;;;4.20;99.90;;;;;;4994491;28;20075;-92
2023/12/07 04:52:42;;;;;;;2.30;2.20;;;3.60;99.90;;;;;;5001147;28;20038;-91
2023/12/07 04:55:08;;;;;;;2.20;2.10;;;3.70;99.90;;;;;;5020572;28;20068;-92
2023/12/07 04:57:35;;;;;;;2.30;2.20;;;4.10;99.90;;;;;;4997848;28;20133;-92
2023/12/07 05:00:06;;;;;;;2.20;2.10;;;3.90;99.90;;;;;;5018740;28;20033;-92
2023/12/07 05:02:32;;;;;;;2.20;2.10;;;3.80;99.90;;;;;;4997185;28;20079;-92
2023/12/07 05:04:58;;;;;;;2.33;2.22;;;3.60;99.90;;;;;;5013716;28;20903;-92
2023/12/07 05:07:23;;;;;;;2.30;2.20;;;3.70;99.90;;;;;;5022048;28;20045;-92
2023/12/07 05:09:52;;;;;;;2.38;2.28;;;3.70;99.90;;;;;;5017173;28;20434;-93
2023/12/07 05:12:18;;;;;;;2.20;2.10;;;3.70;99.90;;;;;;4993260;28;20056;-93
2023/12/07 05:14:44;;;;;;;2.20;2.10;;;3.80;99.90;;;;;;5014829;28;20079;-93
2023/12/07 05:17:10;;;;;;;2.20;2.10;;;3.80;99.90;;;;;;5020604;28;20049;-92
2023/12/07 05:19:35;;;;;;;2.30;2.20;;;3.90;99.90;;;;;;5017151;28;20114;-92
2023/12/07 05:22:01;;;;;;;2.10;2.00;;;4.00;99.90;;;;;;5018291;28;20103;-92
2023/12/07 05:24:27;;;;;;;2.20;2.10;;;4.20;99.90;;;;;;4995614;28;20049;-93
2023/12/07 05:26:53;;;;;;;2.10;2.00;;;4.20;99.90;;;;;;5027695;28;20548;-92
2023/12/07 05:29:19;;;;;;;2.15;2.05;;;3.80;99.90;;;;;;5002928;28;20097;-92
2023/12/07 05:31:48;;;;;;;2.30;2.20;;;3.80;99.90;;;;;;5007356;28;20045;-91
2023/12/07 05:34:13;;;;;;;2.10;2.00;;;4.10;99.90;;;;;;5015462;28;20041;-92
2023/12/07 05:36:39;;;;;;;2.40;2.30;;;4.30;99.90;;;;;;5014926;28;20128;-90
2023/12/07 05:39:07;;;;;;;2.22;2.13;;;3.90;99.90;;;;;;5017086;28;20087;-92
2023/12/07 05:41:33;;;;;;;2.40;2.30;;;4.40;99.90;;;;;;5007961;28;20072;-94
2023/12/07 05:43:58;;;;;;;2.25;2.15;;;4.40;99.90;;;;;;4988894;28;20041;-93
2023/12/07 05:46:24;;;;;;;2.20;2.10;;;4.00;99.90;;;;;;5015877;28;20037;-92
2023/12/07 05:48:50;;;;;;;2.13;2.03;;;3.90;99.90;;;;;;5010913;28;20045;-93
2023/12/07 05:51:17;;;;;;;2.20;2.10;;;4.10;99.90;;;;;;4997200;28;20038;-93
2023/12/07 05:53:43;;;;;;;2.40;2.30;;;4.40;99.90;;;;;;5014590;28;20502;-93
2023/12/07 05:56:13;;;;;;;2.20;2.10;;;4.20;99.90;;;;;;5018390;28;20087;-93
2023/12/07 05:58:39;;;;;;;2.33;2.22;;;4.00;99.90;;;;;;4994337;28;20491;-93
2023/12/07 06:01:07;;;;;;;2.33;2.22;;;3.90;99.90;;;;;;5019544;28;20116;-91
2023/12/07 06:03:33;;;;;;;2.20;2.10;;;3.90;99.90;;;;;;4996432;28;20049;-93
2023/12/07 06:05:59;;;;;;;2.28;2.17;;;4.50;99.90;;;;;;5012720;28;20045;-91
2023/12/07 06:08:24;;;;;;;2.22;2.13;;;4.20;99.90;;;;;;5000435;28;20261;-92
2023/12/07 06:10:50;;;;;;;2.25;2.15;;;4.40;99.90;;;;;;5011558;28;20041;-92
2023/12/07 06:13:19;;;;;;;2.20;2.10;;;4.40;99.90;;;;;;5012029;28;20130;-92
2023/12/07 06:15:45;;;;;;;2.30;2.20;;;4.50;99.90;;;;;;5035225;28;20068;-93
2023/12/07 06:18:11;;;;;;;2.20;2.10;;;4.20;99.90;;;;;;5018881;28;20740;-92
2023/12/07 06:20:41;;;;;;;2.28;2.17;;;4.00;99.90;;;;;;5002974;28;20886;-93
2023/12/07 06:23:16;;;;;;;2.20;2.10;;;4.30;99.90;;;;;;5021041;28;20438;-92
2023/12/07 06:25:42;;;;;;;2.30;2.20;;;4.40;99.90;;;;;;4990685;28;20068;-92
2023/12/07 06:28:10;;;;;;;2.38;2.28;;;4.40;99.90;;;;;;5018118;28;20080;-93
2023/12/07 06:30:36;;;;;;;2.40;2.30;;;4.30;99.90;;;;;;5013127;28;20069;-92
2023/12/07 06:33:02;;;;;;;2.20;2.10;;;4.30;99.90;;;;;;4991724;28;20100;-91
2023/12/07 06:35:28;;;;;;;2.22;2.13;;;4.20;99.90;;;;;;4986727;28;20045;-93
2023/12/07 06:37:54;;;;;;;2.20;2.10;;;4.00;99.90;;;;;;5002692;28;20049;-91
2023/12/07 06:40:20;;;;;;;2.20;2.10;;;3.90;99.90;;;;;;5008105;28;20045;-92
2023/12/07 06:42:46;;;;;;;2.10;2.00;;;4.20;99.90;;;;;;5002197;28;20042;-91
2023/12/07 06:45:14;;;;;;;2.30;2.20;;;4.30;99.90;;;;;;5000933;28;20523;-92
2023/12/07 06:47:42;;;;;;;2.28;2.17;;;4.40;99.90;;;;;;5007806;28;20041;-90
2023/12/07 06:50:09;;;;;;;2.22;2.13;;;4.50;99.90;;;;;;4995217;28;20531;-91
2023/12/07 06:52:39;;;;;;;2.17;2.08;;;4.00;99.90;;;;;;5017200;28;20041;-92
2023/12/07 06:55:06;;;;;;;2.20;2.10;;;4.00;99.90;;;;;;5009328;28;20038;-92
2023/12/07 06:57:33;;;;;;;2.28;2.17;;;4.20;99.90;;;;;;5001476;28;20048;-92
2023/12/07 07:00:02;;;;;;;2.22;2.13;;;4.20;99.90;;;;;;5000261;28;20041;-92
2023/12/07 07:02:31;;;;;;;2.20;2.10;;;4.30;99.90;;;;;;5004941;28;20077;-93
2023/12/07 07:04:56;;;;;;;2.22;2.13;;;4.40;99.90;;;;;;4995153;28;20084;-92
2023/12/07 07:07:23;;;;;;;2.22;2.13;;;4.10;99.90;;;;;;5015222;28;20045;-91
2023/12/07 07:09:48;;;;;;;2.60;2.50;;;4.50;99.90;;;;;;5018589;28;20136;-93
2023/12/07 07:12:14;;;;;;;2.20;2.10;;;4.10;99.90;;;;;;5002797;28;20063;-93
2023/12/07 07:14:40;;;;;;;2.20;2.10;;;4.40;99.90;;;;;;5020819;28;20045;-93
2023/12/07 07:17:06;;;;;;;2.30;2.20;;;4.10;99.90;;;;;;5002493;28;20065;-92
2023/12/07 07:19:32;;;;;;;2.20;2.10;;;4.50;99.90;;;;;;5008488;28;20099;-92
2023/12/07 07:21:57;;;;;;;2.40;2.30;;;4.00;99.90;;;;;;5002141;28;20041;-91
2023/12/07 07:24:23;;;;;;;2.22;2.13;;;4.00;99.90;;;;;;5018146;28;20076;-92
2023/12/07 07:26:49;;;;;;;2.20;2.10;;;4.10;99.90;;;;;;4997572;28;20052;-92
2023/12/07 07:29:14;;;;;;;2.10;2.00;;;4.10;99.90;;;;;;4992990;28;20049;-93
2023/12/07 07:31:40;;;;;;;2.28;2.17;;;3.90;99.90;;;;;;5013739;28;20394;-92
2023/12/07 07:34:06;;;;;;;2.38;2.28;;;4.50;99.90;;;;;;4991257;28;20041;-90
2023/12/07 07:36:32;;;;;;;2.28;2.17;;;4.40;99.90;;;;;;4981924;28;20081;-88
2023/12/07 07:38:58;;;;;;;2.50;2.40;;;4.40;99.90;;;;;;5005791;28;20049;-92
2023/12/07 07:41:23;;;;;;;2.33;2.22;;;4.00;99.90;;;;;;5016085;28;20124;-91
2023/12/07 07:43:55;;;;;;;2.38;2.28;;;4.50;99.90;;;;;;5015454;28;20098;-94
2023/12/07 07:47:17;;;;;;;2.30;2.20;;;4.40;99.90;;;;;;5015869;28;20175;-96
2023/12/07 07:49:43;;;;;;;2.40;2.30;;;4.50;99.90;;;;;;4989423;28;20053;-94
2023/12/07 07:52:09;;;;;;;2.30;2.20;;;4.10;99.90;;;;;;4996960;28;20037;-93
2023/12/07 07:54:38;;;;;;;2.30;2.20;;;3.90;99.90;;;;;;5005016;28;20065;-95
2023/12/07 07:57:09;;;;;;;2.20;2.10;;;4.00;99.90;;;;;;5012460;28;20819;-95
2023/12/07 07:59:36;;;;;;;2.42;2.33;;;4.00;99.90;;;;;;5010371;28;20064;-95
2023/12/07 08:02:02;;;;;;;2.30;2.20;;;4.30;99.90;;;;;;4991588;28;20069;-93
2023/12/07 08:04:30;;;;;;;2.40;2.30;;;4.10;99.90;;;;;;4998771;28;20574;-95
2023/12/07 08:06:59;;;;;;;2.20;2.10;;;4.10;99.90;;;;;;5014249;28;20132;-93
2023/12/07 08:09:26;;;;;;;2.30;2.20;;;4.00;99.90;;;;;;4981851;28;20092;-95
2023/12/07 08:11:53;;;;;;;2.50;2.30;;;3.80;99.90;;;;;;4994767;28;20049;-94
2023/12/07 08:14:19;;;;;;;2.22;2.13;;;4.20;99.90;;;;;;5014769;28;20056;-93
2023/12/07 08:16:47;;;;;;;2.35;2.25;;;4.20;99.90;;;;;;4998149;28;20037;-95
2023/12/07 08:19:19;;;;;;;2.20;2.10;;;3.80;99.90;;;;;;5014044;28;20053;-95
2023/12/07 08:21:45;;;;;;;2.30;2.20;;;4.20;99.90;;;;;;5014799;28;20051;-94
2023/12/07 08:24:12;;;;;;;2.30;2.20;;;3.80;99.90;;;;;;4990782;28;20034;-94
2023/12/07 08:26:39;;;;;;;2.28;2.17;;;4.00;99.90;;;;;;5029774;28;20765;-94
2023/12/07 08:29:06;;;;;;;2.20;2.10;;;3.90;99.90;;;;;;4997562;28;20045;-93
2023/12/07 08:31:34;;;;;;;2.22;2.13;;;4.20;99.90;;;;;;5011285;28;20116;-95
2023/12/07 08:34:00;;;;;;;2.20;2.10;;;4.10;99.90;;;;;;4990474;28;20049;-95
2023/12/07 08:36:57;;;;;;;2.40;2.30;;;3.70;99.90;;;;;;5015956;28;20052;-95
2023/12/07 08:39:42;;;;;;;2.30;2.20;;;3.60;99.90;;;;;;5000940;28;20509;-95
2023/12/07 08:42:34;;;;;;;2.28;2.17;;;3.90;99.90;;;;;;5015244;28;20475;-95
2023/12/07 08:45:00;;;;;;;2.28;2.17;;;3.60;99.90;;;;;;4994629;28;20660;-93
2023/12/07 08:47:27;;;;;;;2.30;2.20;;;4.00;99.90;;;;;;4997301;28;20049;-94
2023/12/07 08:50:03;;;;;;;2.45;2.35;;;3.90;99.90;;;;;;5011750;28;20117;-94
2023/12/07 08:52:28;;;;;;;2.40;2.30;;;4.00;99.90;;;;;;5032071;28;20471;-90
2023/12/07 08:54:54;;;;;;;2.30;2.20;;;4.00;99.90;;;;;;5012412;28;20052;-89
2023/12/07 09:00:38;;;;;;;2.53;2.42;;;3.80;99.90;;;;;;5032729;28;20130;-93
2023/12/07 09:04:22;;;;;;;2.42;2.33;;;3.70;99.90;;;;;;5020925;28;20057;-95
2023/12/07 09:06:47;;;;;;;2.42;2.33;;;4.20;99.90;;;;;;4974238;28;20860;-91
2023/12/07 09:09:13;;;;;;;2.28;2.17;;;4.10;99.90;;;;;;4993073;28;20049;-93
2023/12/07 09:11:38;;;;;;;2.40;2.30;;;3.90;99.90;;;;;;5007348;28;20139;-91
2023/12/07 09:14:04;;;;;;;2.22;2.13;;;4.20;99.90;;;;;;4993039;28;20064;-92
2023/12/07 09:16:30;;;;;;;2.42;2.33;;;4.00;99.90;;;;;;4990658;28;20037;-92
2023/12/07 09:18:56;;;;;;;2.40;2.30;;;4.20;99.90;;;;;;4984982;28;20045;-91
2023/12/07 09:21:21;;;;;;;2.35;2.25;;;4.00;99.90;;;;;;4996533;28;20043;-94
2023/12/07 09:23:47;;;;;;;2.55;2.45;;;4.30;99.90;;;;;;5006555;28;20045;-94
2023/12/07 09:26:13;;;;;;;2.38;2.28;;;4.00;99.90;;;;;;5004107;28;20046;-91
2023/12/07 09:28:39;;;;;;;2.42;2.33;;;3.70;99.90;;;;;;5000638;28;20046;-94
2023/12/07 09:31:06;;;;;;;2.35;2.25;;;4.10;99.90;;;;;;5026877;28;20080;-91
2023/12/07 09:33:31;;;;;;;2.80;2.63;;;3.90;99.90;;;;;;4986460;28;20430;-92
2023/12/07 09:35:57;;;;;;;2.42;2.33;;;4.00;99.90;;;;;;5014024;28;20120;-90
2023/12/07 09:38:23;;;;;;;2.53;2.42;;;3.90;99.90;;;;;;5012370;28;20049;-93
2023/12/07 09:40:53;;;;;;;2.65;2.53;;;4.50;99.90;;;;;;5027978;28;20080;-91
2023/12/07 09:43:19;;;;;;;2.47;2.38;;;4.00;99.90;;;;;;4985473;28;20156;-90
2023/12/07 09:45:45;;;;;;;2.33;2.22;;;4.30;99.90;;;;;;5018714;28;20144;-90
2023/12/07 09:48:10;;;;;;;2.42;2.33;;;4.50;99.90;;;;;;5005686;28;20042;-91
2023/12/07 09:50:37;;;;;;;2.50;2.40;;;4.20;99.90;;;;;;4991255;28;20037;-92
2023/12/07 09:53:03;;;;;;;2.53;2.42;;;4.20;99.90;;;;;;4982024;28;20046;-91
2023/12/07 09:55:28;;;;;;;2.40;2.30;;;4.50;99.90;;;;;;5008157;28;20623;-91
2023/12/07 09:57:56;;;;;;;2.45;2.35;;;4.50;99.90;;;;;;4988137;28;20065;-91
2023/12/07 10:00:22;;;;;;;2.20;2.10;;;4.70;99.90;;;;;;5014496;28;20496;-91
2023/12/07 10:02:49;;;;;;;2.33;2.22;;;4.60;99.90;;;;;;5014048;28;20049;-90
2023/12/07 10:05:19;;;;;;;2.83;2.63;;;4.90;99.90;;;;;;5014899;28;20136;-90
2023/12/07 10:07:47;;;;;;;2.22;2.13;;;4.50;99.90;;;;;;5002258;28;20076;-93
2023/12/07 10:10:14;;;;;;;2.30;2.20;;;5.10;99.90;;;;;;5024996;28;20049;-92
2023/12/07 10:12:57;;;;;;;2.30;2.20;;;4.90;99.90;;;;;;5009406;28;20045;-94
2023/12/07 10:15:23;;;;;;;2.38;2.28;;;4.90;99.90;;;;;;4991666;28;20037;-90
2023/12/07 10:17:50;;;;;;;2.35;2.25;;;4.80;99.90;;;;;;5008524;28;20041;-91
2023/12/07 10:20:24;;;;;;;2.30;2.20;;;4.80;99.90;;;;;;5028710;28;20254;-92
2023/12/07 10:23:09;;;;;;;2.33;2.22;;;5.10;99.90;;;;;;5005751;28;20045;-92
2023/12/07 10:25:40;;;;;;;2.38;2.28;;;5.00;99.90;;;;;;4998397;28;20491;-92
2023/12/07 10:28:07;;;;;;;2.53;2.42;;;5.00;99.90;;;;;;5011271;28;20064;-92
2023/12/07 10:30:34;;;;;;;2.38;2.28;;;5.20;99.90;;;;;;5016103;28;20040;-91
2023/12/07 10:33:02;;;;;;;2.40;2.30;;;4.90;99.90;;;;;;5014515;28;20049;-93
2023/12/07 10:35:29;;;;;;;2.28;2.17;;;5.20;99.90;;;;;;4985044;28;20141;-90
2023/12/07 10:37:55;;;;;;;2.30;2.20;;;5.10;99.90;;;;;;5002347;28;20054;-92
2023/12/07 10:40:21;;;;;;;2.10;2.00;;;5.30;99.90;;;;;;5012639;28;20044;-91
2023/12/07 10:42:48;;;;;;;2.35;2.25;;;5.30;99.90;;;;;;5004841;28;20154;-91
2023/12/07 10:45:15;;;;;;;2.20;2.10;;;5.40;99.90;;;;;;5006735;28;20046;-91
2023/12/07 10:47:43;;;;;;;2.22;2.13;;;5.30;99.90;;;;;;5022268;28;20095;-90
2023/12/07 10:50:13;;;;;;;2.30;2.20;;;5.10;99.90;;;;;;4994754;28;20034;-90
2023/12/07 10:52:51;;;;;;;2.20;2.10;;;5.10;99.90;;;;;;5006690;28;20150;-91
2023/12/07 10:55:20;;;;;;;2.28;2.17;;;5.30;99.90;;;;;;5012419;28;20046;-91
2023/12/07 10:57:47;;;;;;;2.22;2.13;;;5.20;99.90;;;;;;4994886;28;20048;-91
2023/12/07 11:00:13;;;;;;;2.40;2.30;;;5.30;99.90;;;;;;5000864;28;20138;-91
2023/12/07 11:02:41;;;;;;;2.20;2.10;;;5.10;99.90;;;;;;5010893;28;20046;-91
2023/12/07 11:05:08;;;;;;;2.30;2.20;;;5.30;99.90;;;;;;5003804;28;20042;-93
2023/12/07 11:08:07;;;;;;;2.20;2.10;;;5.20;99.90;;;;;;5005545;28;20136;-92
2023/12/07 11:10:39;;;;;;;2.20;2.10;;;5.50;99.90;;;;;;4978994;28;20187;-93
2023/12/07 11:13:36;;;;;;;2.25;2.15;;;5.40;99.90;;;;;;5014965;28;20445;-95
2023/12/07 11:16:03;;;;;;;2.25;2.15;;;5.30;99.90;;;;;;5011477;28;20124;-86
2023/12/07 11:18:38;;;;;;;2.17;2.08;;;5.50;99.90;;;;;;4987634;28;20079;-94
2023/12/07 11:21:07;;;;;;;2.20;2.10;;;5.10;99.90;;;;;;5009312;28;20041;-96
2023/12/07 11:23:33;;;;;;;2.13;2.03;;;5.50;99.90;;;;;;4998369;28;20037;-94
2023/12/07 11:25:59;;;;;;;15.30;14.45;;;5.50;99.90;;;;;;4999714;28;20071;-94
2023/12/07 11:28:39;;;;;;;2.30;2.20;;;5.30;99.90;;;;;;5015018;28;20045;-93
2023/12/07 11:31:08;;;;;;;2.25;2.15;;;5.20;99.90;;;;;;5011405;28;20060;-93
2023/12/07 11:33:39;;;;;;;2.20;2.10;;;5.50;99.90;;;;;;5003094;28;20458;-94
2023/12/07 11:36:06;;;;;;;2.17;2.08;;;5.30;99.90;;;;;;4999426;28;20041;-92
2023/12/07 11:38:32;;;;;;;2.13;2.03;;;5.60;99.90;;;;;;5012171;28;20584;-89
2023/12/07 11:40:59;;;;;;;2.00;1.90;;;5.60;99.90;;;;;;5010609;28;20038;-92
2023/12/07 11:43:40;;;;;;;2.20;2.10;;;5.70;99.90;;;;;;5004038;28;20080;-90
2023/12/07 11:46:07;;;;;;;2.17;2.08;;;5.70;99.90;;;;;;4990256;28;20080;-87
2023/12/07 11:48:33;;;;;;;2.15;2.05;;;5.80;99.90;;;;;;5009064;28;20107;-90
2023/12/07 11:51:02;;;;;;;2.30;2.20;;;5.40;99.90;;;;;;5001512;28;20128;-90
2023/12/07 11:53:34;;;;;;;2.10;2.00;;;6.00;99.90;;;;;;5010523;28;20049;-90
2023/12/07 11:56:07;;;;;;;2.30;2.17;;;5.90;99.90;;;;;;5008720;28;20033;-90
2023/12/07 11:58:35;;;;;;;2.38;2.28;;;5.80;99.90;;;;;;5010773;28;20074;-89
2023/12/07 12:01:01;;;;;;;2.20;2.10;;;5.50;99.90;;;;;;5016563;28;20037;-91
2023/12/07 12:03:28;;;;;;;2.20;2.10;;;5.50;99.90;;;;;;5009696;28;20050;-91
2023/12/07 12:05:54;;;;;;;2.30;2.20;;;5.70;99.90;;;;;;5015709;28;20095;-91
2023/12/07 12:08:21;;;;;;;2.30;2.20;;;6.00;99.90;;;;;;5014542;28;20071;-91
2023/12/07 12:10:49;;;;;;;2.20;2.10;;;6.00;99.90;;;;;;4999573;28;20777;-90
2023/12/07 12:13:15;;;;;;;2.33;2.22;;;5.60;99.90;;;;;;5014458;28;20056;-91
2023/12/07 12:15:42;;;;;;;2.45;2.35;;;6.10;99.90;;;;;;4988381;28;20037;-91
2023/12/07 12:18:08;;;;;;;2.30;2.20;;;5.90;99.90;;;;;;5004528;28;20127;-90
2023/12/07 12:20:35;;;;;;;2.20;2.10;;;6.20;99.90;;;;;;4997676;28;20037;-92
2023/12/07 12:23:01;;;;;;;2.30;2.20;;;5.80;99.90;;;;;;4996171;28;20128;-91
2023/12/07 12:25:31;;;;;;;2.08;1.98;;;6.20;99.90;;;;;;4999207;28;20091;-92
2023/12/07 12:28:00;;;;;;;2.00;1.90;;;5.90;99.90;;;;;;5005699;28;20395;-91
2023/12/07 12:30:26;;;;;;;2.17;2.08;;;5.80;99.90;;;;;;5003955;28;20048;-90
2023/12/07 12:32:53;;;;;;;2.78;2.60;;;6.00;99.90;;;;;;5003262;28;20072;-93
2023/12/07 12:35:19;;;;;;;2.28;2.17;;;6.00;99.90;;;;;;5006010;28;20044;-92
2023/12/07 12:37:46;;;;;;;2.30;2.20;;;6.20;99.90;;;;;;4985909;28;20509;-93
2023/12/07 12:40:15;;;;;;;2.20;2.10;;;6.00;99.90;;;;;;4998731;28;20059;-91
2023/12/07 12:42:44;;;;;;;2.13;2.03;;;6.20;99.90;;;;;;5010076;28;20041;-86
2023/12/07 12:45:13;;;;;;;2.20;2.10;;;6.40;99.90;;;;;;5022243;28;20506;-89
2023/12/07 12:47:43;;;;;;;2.20;2.10;;;6.10;99.90;;;;;;5006269;28;20033;-88
2023/12/07 12:50:10;;;;;;;2.10;2.00;;;6.50;99.90;;;;;;5010721;28;20064;-90
2023/12/07 12:52:36;;;;;;;2.15;2.05;;;6.50;99.90;;;;;;5001887;28;20045;-87
2023/12/07 12:55:06;;;;;;;2.22;2.13;;;6.30;99.90;;;;;;5003115;28;20427;-92
2023/12/07 12:57:32;;;;;;;1.80;1.70;;;6.20;99.90;;;;;;4993139;28;20076;-91
2023/12/07 13:00:00;;;;;;;2.25;2.15;;;6.40;99.90;;;;;;5013424;28;20048;-91
2023/12/07 13:02:26;;;;;;;2.13;2.03;;;6.20;99.90;;;;;;4993134;28;20050;-93
2023/12/07 13:04:52;;;;;;;1.90;1.80;;;6.20;99.90;;;;;;4982971;28;20046;-95